Time,TemperatureF,DewpointF,PressureIn,WindDirection,WindDirectionDegrees,WindSpeedMPH,WindSpeedGustMPH,Humidity,HourlyPrecipIn,Conditions,Clouds,dailyrainin,SoftwareType,DateUTC
2013-06-28 00:01:00,83.0,70.0,29.89,SSE,148,0.0,0.0,65,0.00,,,0.00,,2013-06-28 05:01:00,
2013-06-28 00:11:00,83.0,71.0,29.88,SSE,148,0.0,0.0,67,0.00,,,0.00,,2013-06-28 05:11:00,
2013-06-28 00:22:00,83.0,71.0,29.88,SSE,148,0.0,0.0,67,0.00,,,0.00,,2013-06-28 05:22:00,
2013-06-28 00:33:00,82.0,68.0,29.87,SSE,148,0.0,0.0,63,0.00,,,0.00,,2013-06-28 05:33:00,
2013-06-28 00:43:00,82.0,68.0,29.87,SSE,148,0.0,0.0,63,0.00,,,0.00,,2013-06-28 05:43:00,
2013-06-28 00:52:00,82.0,68.0,29.87,SSE,148,0.0,0.0,63,0.00,,,0.00,,2013-06-28 05:52:00,
2013-06-28 01:02:00,82.0,68.0,29.87,SSE,148,0.0,0.0,63,0.00,,,0.00,,2013-06-28 06:02:00,
2013-06-28 01:12:00,82.0,68.0,29.87,SE,141,0.0,0.0,62,0.00,,,0.00,,2013-06-28 06:12:00,
2013-06-28 01:22:00,82.0,68.0,29.87,SE,141,0.0,0.0,62,0.00,,,0.00,,2013-06-28 06:22:00,
2013-06-28 01:33:00,82.0,68.0,29.87,SE,141,0.0,0.0,62,0.00,,,0.00,,2013-06-28 06:33:00,
2013-06-28 01:42:00,82.0,68.0,29.87,SE,141,0.0,0.0,62,0.00,,,0.00,,2013-06-28 06:42:00,
2013-06-28 01:52:00,81.0,68.0,29.86,SE,145,1.0,3.0,64,0.00,,,0.00,,2013-06-28 06:52:00,
2013-06-28 02:01:00,81.0,68.0,29.86,SE,145,1.0,3.0,64,0.00,,,0.00,,2013-06-28 07:01:00,
2013-06-28 02:11:00,81.0,68.0,29.86,SE,145,1.0,3.0,64,0.00,,,0.00,,2013-06-28 07:11:00,
2013-06-28 02:22:00,82.0,68.0,29.86,SSE,162,0.0,2.0,63,0.00,,,0.00,,2013-06-28 07:22:00,
2013-06-28 02:33:00,82.0,68.0,29.86,SSE,162,0.0,2.0,63,0.00,,,0.00,,2013-06-28 07:33:00,
2013-06-28 02:43:00,82.0,68.0,29.86,SSE,162,0.0,2.0,63,0.00,,,0.00,,2013-06-28 07:43:00,
2013-06-28 02:52:00,82.0,68.0,29.86,SSE,162,0.0,2.0,63,0.00,,,0.00,,2013-06-28 07:52:00,
2013-06-28 03:01:00,82.0,68.0,29.86,SSE,162,0.0,2.0,63,0.00,,,0.00,,2013-06-28 08:01:00,
2013-06-28 03:11:00,79.0,69.0,29.86,SE,138,0.0,0.0,71,0.00,,,0.00,,2013-06-28 08:11:00,
2013-06-28 03:21:00,79.0,68.0,29.85,SE,136,1.0,3.0,70,0.00,,,0.00,,2013-06-28 08:21:00,
2013-06-28 03:33:00,78.0,68.0,29.85,SE,138,0.0,3.0,71,0.00,,,0.00,,2013-06-28 08:33:00,
2013-06-28 03:43:00,78.0,69.0,29.85,SE,138,0.0,2.0,74,0.00,,,0.00,,2013-06-28 08:43:00,
2013-06-28 03:52:00,78.0,69.0,29.85,SE,138,0.0,2.0,74,0.00,,,0.00,,2013-06-28 08:52:00,
2013-06-28 04:02:00,78.0,69.0,29.85,SE,138,0.0,2.0,74,0.00,,,0.00,,2013-06-28 09:02:00,
2013-06-28 04:11:00,79.0,69.0,29.84,SSE,161,0.0,0.0,71,0.00,,,0.00,,2013-06-28 09:11:00,
2013-06-28 04:22:00,79.0,69.0,29.84,SSE,161,0.0,0.0,71,0.00,,,0.00,,2013-06-28 09:22:00,
2013-06-28 04:33:00,78.0,67.0,29.85,SSE,161,0.0,0.0,70,0.00,,,0.00,,2013-06-28 09:33:00,
2013-06-28 04:42:00,79.0,68.0,29.84,SSE,154,2.0,3.0,70,0.00,,,0.00,,2013-06-28 09:42:00,
2013-06-28 04:52:00,79.0,68.0,29.84,SSE,154,2.0,3.0,70,0.00,,,0.00,,2013-06-28 09:52:00,
2013-06-28 05:02:00,78.0,68.0,29.83,South,169,1.0,3.0,71,0.00,,,0.00,,2013-06-28 10:02:00,
2013-06-28 05:11:00,78.0,68.0,29.83,South,169,1.0,3.0,71,0.00,,,0.00,,2013-06-28 10:11:00,
2013-06-28 05:22:00,78.0,68.0,29.83,South,169,1.0,3.0,71,0.00,,,0.00,,2013-06-28 10:22:00,
2013-06-28 05:33:00,77.0,68.0,29.83,SSE,153,1.0,3.0,73,0.00,,,0.00,,2013-06-28 10:33:00,
2013-06-28 05:42:00,77.0,68.0,29.83,SSE,157,2.0,3.0,73,0.00,,,0.00,,2013-06-28 10:42:00,
2013-06-28 05:52:00,77.0,67.0,29.82,SSE,157,5.0,7.0,72,0.00,,,0.00,,2013-06-28 10:52:00,
2013-06-28 06:02:00,77.0,67.0,29.82,SSE,157,5.0,7.0,72,0.00,,,0.00,,2013-06-28 11:02:00,
2013-06-28 06:11:00,77.0,67.0,29.82,SSE,157,5.0,7.0,72,0.00,,,0.00,,2013-06-28 11:11:00,
2013-06-28 06:22:00,77.0,67.0,29.82,SSE,157,5.0,7.0,72,0.00,,,0.00,,2013-06-28 11:22:00,
2013-06-28 06:34:00,78.0,68.0,29.85,SSW,203,1.0,3.0,71,0.00,,,0.00,,2013-06-28 11:34:00,
2013-06-28 06:43:00,78.0,68.0,29.85,SSW,203,1.0,3.0,71,0.00,,,0.00,,2013-06-28 11:43:00,
2013-06-28 06:53:00,78.0,68.0,29.85,SSW,203,1.0,3.0,71,0.00,,,0.00,,2013-06-28 11:53:00,
2013-06-28 07:02:00,76.0,67.0,29.87,SW,217,1.0,5.0,75,0.00,,,0.00,,2013-06-28 12:02:00,
2013-06-28 07:12:00,76.0,67.0,29.87,SW,217,1.0,5.0,75,0.00,,,0.00,,2013-06-28 12:12:00,
2013-06-28 07:22:00,76.0,68.0,29.87,SW,221,0.0,3.0,76,0.00,,,0.00,,2013-06-28 12:22:00,
2013-06-28 07:33:00,76.0,68.0,29.87,SW,221,0.0,3.0,76,0.00,,,0.00,,2013-06-28 12:33:00,
2013-06-28 07:43:00,77.0,68.0,29.88,South,171,0.0,2.0,75,0.00,,,0.00,,2013-06-28 12:43:00,
2013-06-28 07:52:00,77.0,68.0,29.88,South,171,0.0,2.0,75,0.00,,,0.00,,2013-06-28 12:52:00,
2013-06-28 08:01:00,77.0,69.0,29.88,SE,146,0.0,2.0,77,0.00,,,0.00,,2013-06-28 13:01:00,
2013-06-28 08:11:00,77.0,69.0,29.88,SE,146,0.0,2.0,77,0.00,,,0.00,,2013-06-28 13:11:00,
2013-06-28 08:23:00,78.0,69.0,29.88,SSE,155,1.0,5.0,75,0.00,,,0.00,,2013-06-28 13:23:00,
2013-06-28 08:33:00,78.0,69.0,29.88,SSE,155,1.0,5.0,75,0.00,,,0.00,,2013-06-28 13:33:00,
2013-06-28 08:43:00,78.0,69.0,29.88,SSE,155,1.0,5.0,75,0.00,,,0.00,,2013-06-28 13:43:00,
2013-06-28 08:53:00,78.0,69.0,29.88,SSE,155,1.0,5.0,75,0.00,,,0.00,,2013-06-28 13:53:00,
2013-06-28 09:02:00,78.0,69.0,29.88,SSE,155,1.0,5.0,75,0.00,,,0.00,,2013-06-28 14:02:00,
2013-06-28 09:22:00,81.0,69.0,29.88,SSW,199,2.0,6.0,68,0.00,,,0.00,,2013-06-28 14:22:00,
2013-06-28 09:33:00,81.0,70.0,29.88,SSW,202,3.0,6.0,69,0.00,,,0.00,,2013-06-28 14:33:00,
2013-06-28 09:44:00,81.0,71.0,29.88,SSW,196,2.0,6.0,71,0.00,,,0.00,,2013-06-28 14:44:00,
2013-06-28 09:53:00,81.0,71.0,29.88,SSW,196,2.0,6.0,71,0.00,,,0.00,,2013-06-28 14:53:00,
2013-06-28 10:02:00,81.0,71.0,29.87,South,187,3.0,6.0,71,0.00,,,0.00,,2013-06-28 15:02:00,
2013-06-28 10:11:00,81.0,71.0,29.87,South,187,3.0,6.0,71,0.00,,,0.00,,2013-06-28 15:11:00,
2013-06-28 10:24:00,82.0,72.0,29.87,SSE,157,3.0,5.0,73,0.00,,,0.00,,2013-06-28 15:24:00,
2013-06-28 10:34:00,82.0,72.0,29.86,SSW,192,3.0,6.0,71,0.00,,,0.00,,2013-06-28 15:34:00,
2013-06-28 10:43:00,82.0,72.0,29.86,SSW,192,3.0,6.0,71,0.00,,,0.00,,2013-06-28 15:43:00,
2013-06-28 10:52:00,83.0,72.0,29.87,SW,233,2.0,3.0,69,0.00,,,0.00,,2013-06-28 15:52:00,
2013-06-28 11:01:00,83.0,71.0,29.86,SW,232,3.0,7.0,67,0.00,,,0.00,,2013-06-28 16:01:00,
2013-06-28 11:11:00,83.0,71.0,29.86,SW,232,3.0,7.0,67,0.00,,,0.00,,2013-06-28 16:11:00,
2013-06-28 11:24:00,84.0,72.0,29.86,WSW,237,2.0,6.0,68,0.00,,,0.00,,2013-06-28 16:24:00,
2013-06-28 11:33:00,84.0,72.0,29.86,WSW,237,2.0,6.0,68,0.00,,,0.00,,2013-06-28 16:33:00,
2013-06-28 11:44:00,85.0,72.0,29.86,South,176,1.0,3.0,66,0.00,,,0.00,,2013-06-28 16:44:00,
2013-06-28 11:53:00,86.0,72.0,29.86,South,185,2.0,3.0,64,0.00,,,0.00,,2013-06-28 16:53:00,
2013-06-28 12:02:00,87.0,73.0,29.86,South,174,2.0,5.0,63,0.00,,,0.00,,2013-06-28 17:02:00,
2013-06-28 12:11:00,87.0,73.0,29.86,South,174,2.0,5.0,63,0.00,,,0.00,,2013-06-28 17:11:00,
2013-06-28 12:22:00,87.0,71.0,29.85,WSW,241,2.0,5.0,60,0.00,,,0.00,,2013-06-28 17:22:00,
2013-06-28 12:33:00,89.0,72.0,29.85,WSW,245,2.0,6.0,58,0.00,,,0.00,,2013-06-28 17:33:00,
2013-06-28 12:44:00,91.0,72.0,29.85,WSW,258,3.0,8.0,54,0.00,,,0.00,,2013-06-28 17:44:00,
2013-06-28 12:52:00,91.0,71.0,29.84,SW,225,4.0,8.0,53,0.00,,,0.00,,2013-06-28 17:52:00,
2013-06-28 13:02:00,91.0,70.0,29.84,WSW,243,5.0,9.0,51,0.00,,,0.00,,2013-06-28 18:02:00,
2013-06-28 13:11:00,92.0,68.0,29.84,West,275,6.0,8.0,46,0.00,,,0.00,,2013-06-28 18:11:00,
2013-06-28 13:22:00,92.0,68.0,29.84,West,275,6.0,8.0,46,0.00,,,0.00,,2013-06-28 18:22:00,
2013-06-28 13:33:00,93.0,68.0,29.83,West,266,5.0,8.0,45,0.00,,,0.00,,2013-06-28 18:33:00,
2013-06-28 13:43:00,93.0,68.0,29.83,West,266,5.0,8.0,45,0.00,,,0.00,,2013-06-28 18:43:00,
2013-06-28 13:52:00,94.0,71.0,29.82,SW,224,4.0,8.0,47,0.00,,,0.00,,2013-06-28 18:52:00,
2013-06-28 14:01:00,94.0,67.0,29.82,WNW,298,5.0,9.0,41,0.00,,,0.00,,2013-06-28 19:01:00,
2013-06-28 14:11:00,94.0,67.0,29.82,WNW,298,5.0,9.0,41,0.00,,,0.00,,2013-06-28 19:11:00,
2013-06-28 14:22:00,94.0,67.0,29.82,WNW,298,5.0,9.0,41,0.00,,,0.00,,2013-06-28 19:22:00,
2013-06-28 14:33:00,94.0,67.0,29.82,WNW,298,5.0,9.0,41,0.00,,,0.00,,2013-06-28 19:33:00,
2013-06-28 14:43:00,96.0,70.0,29.80,NW,305,5.0,10.0,43,0.00,,,0.00,,2013-06-28 19:43:00,
2013-06-28 14:53:00,96.0,70.0,29.80,NW,305,5.0,10.0,43,0.00,,,0.00,,2013-06-28 19:53:00,
2013-06-28 15:02:00,96.0,70.0,29.80,NW,305,5.0,10.0,43,0.00,,,0.00,,2013-06-28 20:02:00,
2013-06-28 15:11:00,97.0,70.0,29.80,West,269,2.0,7.0,42,0.00,,,0.00,,2013-06-28 20:11:00,
2013-06-28 15:22:00,98.0,70.0,29.79,NW,304,2.0,6.0,40,0.00,,,0.00,,2013-06-28 20:22:00,
2013-06-28 15:33:00,98.0,70.0,29.79,NW,304,2.0,6.0,40,0.00,,,0.00,,2013-06-28 20:33:00,
2013-06-28 15:43:00,98.0,70.0,29.78,NNW,335,1.0,3.0,40,0.00,,,0.00,,2013-06-28 20:43:00,
2013-06-28 15:52:00,99.0,67.0,29.78,East,94,1.0,3.0,36,0.00,,,0.00,,2013-06-28 20:52:00,
2013-06-28 16:01:00,99.0,67.0,29.78,East,94,1.0,3.0,36,0.00,,,0.00,,2013-06-28 21:01:00,
2013-06-28 16:11:00,99.0,69.0,29.77,NNE,22,3.0,8.0,38,0.00,,,0.00,,2013-06-28 21:11:00,
2013-06-28 16:23:00,99.0,69.0,29.77,NNE,22,3.0,8.0,38,0.00,,,0.00,,2013-06-28 21:23:00,
2013-06-28 16:34:00,100.0,72.0,29.76,East,79,1.0,8.0,41,0.00,,,0.00,,2013-06-28 21:34:00,
2013-06-28 16:43:00,100.0,72.0,29.76,East,79,1.0,8.0,41,0.00,,,0.00,,2013-06-28 21:43:00,
2013-06-28 16:53:00,100.0,72.0,29.76,East,79,1.0,8.0,41,0.00,,,0.00,,2013-06-28 21:53:00,
2013-06-28 17:01:00,100.0,72.0,29.76,East,79,1.0,8.0,41,0.00,,,0.00,,2013-06-28 22:01:00,
2013-06-28 17:11:00,100.0,72.0,29.76,East,79,1.0,8.0,41,0.00,,,0.00,,2013-06-28 22:11:00,
2013-06-28 17:22:00,100.0,73.0,29.75,NNW,344,6.0,13.0,42,0.00,,,0.00,,2013-06-28 22:22:00,
2013-06-28 17:34:00,100.0,73.0,29.75,NNW,344,6.0,13.0,42,0.00,,,0.00,,2013-06-28 22:34:00,
2013-06-28 17:43:00,100.0,73.0,29.75,NNW,344,6.0,13.0,42,0.00,,,0.00,,2013-06-28 22:43:00,
2013-06-28 17:52:00,100.0,73.0,29.75,NNE,28,7.0,13.0,42,0.00,,,0.00,,2013-06-28 22:52:00,
2013-06-28 18:01:00,99.0,72.0,29.75,NW,324,3.0,12.0,42,0.00,,,0.00,,2013-06-28 23:01:00,
2013-06-28 18:11:00,99.0,71.0,29.75,NNW,344,3.0,10.0,41,0.00,,,0.00,,2013-06-28 23:11:00,
2013-06-28 18:23:00,99.0,70.0,29.75,NNE,25,6.0,14.0,39,0.00,,,0.00,,2013-06-28 23:23:00,
2013-06-28 18:34:00,99.0,70.0,29.75,NNE,25,6.0,14.0,39,0.00,,,0.00,,2013-06-28 23:34:00,
2013-06-28 18:43:00,98.0,69.0,29.74,North,2,6.0,13.0,39,0.00,,,0.00,,2013-06-28 23:43:00,
2013-06-28 18:53:00,98.0,69.0,29.74,North,2,6.0,13.0,39,0.00,,,0.00,,2013-06-28 23:53:00,
2013-06-28 19:02:00,98.0,69.0,29.74,North,2,6.0,13.0,39,0.00,,,0.00,,2013-06-29 00:02:00,
2013-06-28 19:11:00,98.0,69.0,29.74,North,2,6.0,13.0,39,0.00,,,0.00,,2013-06-29 00:11:00,
2013-06-28 19:22:00,98.0,69.0,29.74,North,2,6.0,13.0,39,0.00,,,0.00,,2013-06-29 00:22:00,
2013-06-28 19:41:00,96.0,71.0,29.75,North,5,5.0,12.0,44,0.00,,,0.00,,2013-06-29 00:41:00,
2013-06-28 20:01:00,96.0,71.0,29.75,North,5,5.0,12.0,44,0.00,,,0.00,,2013-06-29 01:01:00,
2013-06-28 20:11:00,96.0,71.0,29.75,North,5,5.0,12.0,44,0.00,,,0.00,,2013-06-29 01:11:00,
2013-06-28 20:22:00,96.0,71.0,29.75,North,5,5.0,12.0,44,0.00,,,0.00,,2013-06-29 01:22:00,
2013-06-28 20:31:00,96.0,71.0,29.75,North,5,5.0,12.0,44,0.00,,,0.00,,2013-06-29 01:31:00,
2013-06-28 22:11:00,89.0,68.0,29.77,North,354,3.0,6.0,50,0.00,,,0.00,,2013-06-29 03:11:00,
2013-06-28 22:21:00,89.0,68.0,29.77,North,354,3.0,6.0,50,0.00,,,0.00,,2013-06-29 03:21:00,
2013-06-28 22:32:00,89.0,68.0,29.77,North,354,3.0,6.0,50,0.00,,,0.00,,2013-06-29 03:32:00,
2013-06-28 22:41:00,87.0,68.0,29.78,North,353,2.0,5.0,53,0.00,,,0.00,,2013-06-29 03:41:00,
2013-06-28 22:51:00,87.0,68.0,29.78,North,353,2.0,5.0,53,0.00,,,0.00,,2013-06-29 03:51:00,
2013-06-28 23:01:00,87.0,68.0,29.78,North,353,2.0,5.0,53,0.00,,,0.00,,2013-06-29 04:01:00,
2013-06-28 23:11:00,87.0,68.0,29.78,North,353,2.0,5.0,53,0.00,,,0.00,,2013-06-29 04:11:00,
2013-06-28 23:22:00,87.0,68.0,29.78,North,353,2.0,5.0,53,0.00,,,0.00,,2013-06-29 04:22:00,